EGNR/CEG METAR and TAF weather

Enter ICAO airport designator
Station Type Date Time Source
EGNR METAR 2020/06/06 14:50 UTC NOAA

EGNR 061450Z 32020KT 9999 VCSH SCT017 SCT026 15/09 Q0999


Station Type Date Time Source
EGNR Decoded METAR 2020/06/06 14:50 UTC NOAA

Hawarden, United Kingdom (EGNR) 53-10N 002-59W 0M
Jun 06, 2020 - 10:50 AM EDT / 2020.06.06 1450 UTC
Wind: from the NW (320 degrees) at 23 MPH (20 KT):0
Visibility: greater than 7 mile(s):0
Sky conditions: partly cloudy
Weather: showers in the vicinity
Temperature: 59 F (15 C)
Dew Point: 48 F (9 C)
Relative Humidity: 67%
Pressure (altimeter): 29.50 in. Hg (0999 hPa)
ob: EGNR 061450Z 32020KT 9999 VCSH SCT017 SCT026 15/09 Q0999
cycle: 15

Station Type Date Time Source
EGNR TAF 2016/01/23 12:00 UTC NOAA

TAF EGNR 231059Z 2312/2319 15009KT 9999 FEW020
BECMG 2316/2319 BKN014
TEMPO 2317/2319 6000 RA BKN008

Example: see airport list